Time;durP1;ratioP1;P1;durP2;ratioP2;P2;SDS_P1;SDS_P2;PMS_P1;PMS_P2;Temp;Humidity;BMP_temperature;BMP_pressure;BME280_temperature;BME280_humidity;BME280_pressure;Samples;Min_cycle;Max_cycle;Signal;HPM_P1;HPM_P2
2022/08/16 00:00:14;;;;;;;15.98;14.50;;;21.70;99.90;;;;;;5116292;28;20043;-46
2022/08/16 00:02:40;;;;;;;17.70;15.82;;;21.70;99.90;;;;;;5116188;27;20481;-46
2022/08/16 00:05:10;;;;;;;16.55;14.98;;;21.70;99.90;;;;;;5114901;28;20048;-46
2022/08/16 00:07:36;;;;;;;16.80;15.02;;;21.60;99.90;;;;;;5116095;28;20075;-49
2022/08/16 00:10:05;;;;;;;15.20;13.65;;;21.60;99.90;;;;;;5116256;28;20071;-46
2022/08/16 00:12:31;;;;;;;14.57;13.18;;;21.60;99.90;;;;;;5115883;28;20044;-46
2022/08/16 00:14:59;;;;;;;18.17;16.38;;;21.60;99.90;;;;;;5116050;28;20043;-45
2022/08/16 00:17:26;;;;;;;17.48;15.75;;;21.50;99.90;;;;;;5115861;28;20431;-46
2022/08/16 00:19:53;;;;;;;17.75;15.90;;;21.50;99.90;;;;;;5115842;27;20409;-46
2022/08/16 00:22:18;;;;;;;17.35;15.75;;;21.50;99.90;;;;;;5115679;28;20445;-46
2022/08/16 00:24:44;;;;;;;17.00;15.48;;;21.40;99.90;;;;;;5115939;28;20032;-47
2022/08/16 00:27:10;;;;;;;17.50;16.00;;;21.50;99.90;;;;;;5115721;28;20478;-46
2022/08/16 00:29:35;;;;;;;16.90;15.40;;;21.60;99.90;;;;;;5115719;28;20120;-47
2022/08/16 00:32:04;;;;;;;15.55;13.85;;;21.70;99.90;;;;;;5115589;28;20042;-45
2022/08/16 00:34:30;;;;;;;18.15;16.35;;;21.40;99.90;;;;;;5115455;28;20398;-46
2022/08/16 00:36:55;;;;;;;16.80;15.20;;;21.70;99.90;;;;;;5115661;28;20039;-45
2022/08/16 00:39:21;;;;;;;17.08;15.48;;;21.80;99.90;;;;;;5115412;28;20473;-46
2022/08/16 00:41:48;;;;;;;17.05;15.50;;;21.60;99.90;;;;;;5115105;28;20053;-46
2022/08/16 00:44:16;;;;;;;17.40;15.63;;;21.60;99.90;;;;;;5115576;28;20497;-46
2022/08/16 00:47:15;;;;;;;18.13;16.23;;;21.70;99.90;;;;;;5115389;28;20042;-47
2022/08/16 00:49:41;;;;;;;18.38;16.67;;;21.70;99.90;;;;;;5070663;28;20058;-48
2022/08/16 00:52:06;;;;;;;19.15;17.33;;;21.50;99.90;;;;;;5115277;28;20040;-46
2022/08/16 00:54:32;;;;;;;17.60;16.10;;;21.50;99.90;;;;;;5115040;28;20086;-47
2022/08/16 00:57:03;;;;;;;20.30;18.13;;;21.50;99.90;;;;;;5115218;28;20040;-46
2022/08/16 00:59:37;;;;;;;20.63;18.73;;;21.40;99.90;;;;;;5114877;28;20039;-45
2022/08/16 01:02:06;;;;;;;20.92;18.85;;;21.50;99.90;;;;;;5115365;28;20131;-46
2022/08/16 01:04:32;;;;;;;20.08;18.02;;;21.40;99.90;;;;;;5115171;28;20044;-46
2022/08/16 01:07:01;;;;;;;21.03;18.97;;;21.50;99.90;;;;;;5114975;28;20039;-47
2022/08/16 01:09:27;;;;;;;20.40;18.70;;;21.40;99.90;;;;;;5115033;28;20140;-45
2022/08/16 01:11:53;;;;;;;21.40;19.42;;;21.20;99.90;;;;;;5115325;28;20080;-47
2022/08/16 01:14:32;;;;;;;22.33;20.30;;;21.10;99.90;;;;;;5114607;28;20055;-47
2022/08/16 01:16:59;;;;;;;22.20;20.00;;;21.40;99.90;;;;;;5114860;28;20058;-46
2022/08/16 01:19:42;;;;;;;;;;;21.30;99.90;;;;;;5113812;28;20047;-47
2022/08/16 01:22:24;;;;;;;20.92;18.80;;;21.10;99.90;;;;;;5114577;28;19920;-46
2022/08/16 01:24:55;;;;;;;22.23;20.10;;;21.20;99.90;;;;;;5114599;28;20055;-46
2022/08/16 01:27:28;;;;;;;22.17;20.27;;;21.10;99.90;;;;;;5114506;28;20390;-45
2022/08/16 01:30:05;;;;;;;20.83;18.73;;;21.10;99.90;;;;;;5114601;28;20039;-46
2022/08/16 01:32:34;;;;;;;21.45;19.45;;;21.10;99.90;;;;;;5114196;28;20040;-46
2022/08/16 01:35:06;;;;;;;22.02;20.02;;;21.10;99.90;;;;;;5113844;28;20032;-45
2022/08/16 01:37:38;;;;;;;21.95;19.85;;;21.10;99.90;;;;;;5114718;28;20035;-46
2022/08/16 01:40:05;;;;;;;20.27;18.17;;;21.10;99.90;;;;;;5114175;28;20047;-46
2022/08/16 01:42:32;;;;;;;21.05;19.08;;;21.00;99.90;;;;;;5114143;28;20044;-47
2022/08/16 01:44:57;;;;;;;17.80;16.25;;;21.10;99.90;;;;;;5114305;28;20043;-45
2022/08/16 01:47:23;;;;;;;18.02;16.23;;;21.00;99.90;;;;;;5114071;28;20378;-45
2022/08/16 01:49:48;;;;;;;18.35;16.55;;;21.00;99.90;;;;;;5114276;28;20047;-45
2022/08/16 01:52:17;;;;;;;18.45;16.52;;;21.00;99.90;;;;;;5114092;28;20173;-45
2022/08/16 01:54:42;;;;;;;18.65;16.88;;;21.00;99.90;;;;;;5113988;28;20054;-46
2022/08/16 01:57:09;;;;;;;18.75;16.95;;;21.20;99.90;;;;;;5114318;28;20116;-46
2022/08/16 01:59:35;;;;;;;18.95;16.98;;;21.00;99.90;;;;;;5113905;28;20484;-45
2022/08/16 02:02:01;;;;;;;19.85;18.00;;;21.00;99.90;;;;;;5113786;28;20546;-47
2022/08/16 02:04:28;;;;;;;22.60;20.58;;;20.90;99.90;;;;;;5113949;28;20063;-45
2022/08/16 02:06:54;;;;;;;22.30;20.13;;;20.80;99.90;;;;;;5113989;28;20039;-45
2022/08/16 02:09:22;;;;;;;22.25;20.25;;;20.70;99.90;;;;;;5113859;28;20041;-45
2022/08/16 02:11:55;;;;;;;24.38;21.98;;;20.70;99.90;;;;;;5113640;28;20039;-45
2022/08/16 02:14:25;;;;;;;21.85;19.80;;;20.60;99.90;;;;;;5113758;28;20054;-45
2022/08/16 02:16:50;;;;;;;22.42;20.23;;;20.80;99.90;;;;;;5113849;28;20053;-45
2022/08/16 02:19:18;;;;;;;22.95;20.92;;;20.60;99.90;;;;;;5113521;28;20040;-45
2022/08/16 02:21:50;;;;;;;23.70;21.50;;;20.60;99.90;;;;;;5113713;28;20088;-46
2022/08/16 02:24:17;;;;;;;24.30;22.00;;;20.60;99.90;;;;;;5113545;28;20098;-45
2022/08/16 02:26:43;;;;;;;22.23;20.13;;;20.60;99.90;;;;;;5113510;28;20118;-45
2022/08/16 02:29:09;;;;;;;23.15;20.90;;;20.60;99.90;;;;;;5113342;28;20075;-45
2022/08/16 02:31:35;;;;;;;23.77;21.55;;;;;;;;;;5113553;28;20036;-45
2022/08/16 02:34:01;;;;;;;23.55;21.13;;;20.50;99.90;;;;;;5113450;28;20040;-46
2022/08/16 02:36:27;;;;;;;21.73;19.77;;;20.50;99.90;;;;;;5113465;28;20067;-45
2022/08/16 02:38:53;;;;;;;23.40;21.33;;;20.40;99.90;;;;;;5113960;28;20043;-48
2022/08/16 02:41:18;;;;;;;25.33;23.05;;;20.40;99.90;;;;;;5112970;28;20555;-45
2022/08/16 02:43:44;;;;;;;24.40;22.00;;;20.30;99.90;;;;;;5113296;28;20048;-45
2022/08/16 02:46:10;;;;;;;25.48;23.17;;;20.30;99.90;;;;;;5117305;28;20108;-47
2022/08/16 02:48:37;;;;;;;25.35;22.98;;;20.20;99.90;;;;;;5117661;28;20031;-45
2022/08/16 02:51:05;;;;;;;26.67;24.33;;;20.20;99.90;;;;;;5116453;28;20040;-45
2022/08/16 02:53:31;;;;;;;;;;;20.20;99.90;;;;;;5117829;28;20485;-47
2022/08/16 02:55:57;;;;;;;24.10;21.70;;;20.30;99.90;;;;;;5117331;28;19919;-46
2022/08/16 02:58:23;;;;;;;24.50;22.27;;;20.30;99.90;;;;;;5117224;28;20051;-46
2022/08/16 03:00:49;;;;;;;25.67;23.17;;;20.30;99.90;;;;;;5117243;28;20040;-47
2022/08/16 03:03:15;;;;;;;25.27;22.98;;;20.30;99.90;;;;;;5117440;28;20093;-47
2022/08/16 03:05:41;;;;;;;24.65;22.25;;;20.40;99.90;;;;;;5117361;28;20404;-51
2022/08/16 03:08:08;;;;;;;24.58;22.27;;;20.20;99.90;;;;;;5116070;28;20147;-47
2022/08/16 03:10:34;;;;;;;23.98;21.60;;;20.20;99.90;;;;;;5117320;28;20090;-46
2022/08/16 03:12:59;;;;;;;23.95;21.67;;;19.90;99.90;;;;;;5116921;28;20075;-45
2022/08/16 03:15:25;;;;;;;21.02;18.67;;;19.90;99.90;;;;;;5116049;28;20074;-46
2022/08/16 03:17:52;;;;;;;19.17;17.40;;;19.90;99.90;;;;;;5117175;28;20481;-46
2022/08/16 03:20:18;;;;;;;20.20;18.15;;;19.90;99.90;;;;;;5117017;28;20043;-45
2022/08/16 03:22:44;;;;;;;20.15;18.08;;;19.90;99.90;;;;;;5116902;28;20054;-46
2022/08/16 03:25:13;;;;;;;19.17;17.48;;;19.90;99.90;;;;;;5116796;28;20390;-45
2022/08/16 03:27:39;;;;;;;18.58;16.77;;;19.90;99.90;;;;;;5116752;28;20624;-45
2022/08/16 03:30:10;;;;;;;18.75;16.98;;;19.90;99.90;;;;;;5116860;28;20071;-46
2022/08/16 03:32:36;;;;;;;19.52;17.63;;;19.90;99.90;;;;;;5116952;28;20043;-45
2022/08/16 03:35:01;;;;;;;19.50;17.70;;;19.90;99.90;;;;;;5116749;28;20393;-45
2022/08/16 03:37:27;;;;;;;18.02;16.42;;;19.90;99.90;;;;;;5116754;28;20040;-47
2022/08/16 03:39:54;;;;;;;19.58;17.55;;;19.90;99.90;;;;;;5116484;28;20050;-46
2022/08/16 03:42:19;;;;;;;18.13;16.27;;;19.80;99.90;;;;;;5116435;28;20055;-46
2022/08/16 03:44:45;;;;;;;19.35;17.63;;;19.80;99.90;;;;;;5116670;28;20047;-45
2022/08/16 03:47:11;;;;;;;18.70;16.90;;;19.80;99.90;;;;;;5116494;28;20067;-46
2022/08/16 03:49:36;;;;;;;18.60;16.83;;;19.80;99.90;;;;;;5116847;28;20502;-45
2022/08/16 03:52:03;;;;;;;20.17;17.73;;;19.70;99.90;;;;;;5116246;28;20044;-45
2022/08/16 03:54:28;;;;;;;20.10;18.30;;;19.80;99.90;;;;;;5116380;28;20073;-49
2022/08/16 03:56:54;;;;;;;19.98;18.10;;;19.70;99.90;;;;;;5115787;28;20042;-47
2022/08/16 03:59:19;;;;;;;20.42;18.42;;;19.70;99.90;;;;;;5116387;28;20035;-47
2022/08/16 04:01:45;;;;;;;21.73;19.35;;;19.70;99.90;;;;;;5116262;28;20040;-47
2022/08/16 04:04:11;;;;;;;19.13;17.40;;;19.70;99.90;;;;;;5116149;28;20457;-48
2022/08/16 04:06:36;;;;;;;18.08;16.35;;;19.60;99.90;;;;;;5116117;28;20035;-47
2022/08/16 04:09:02;;;;;;;20.85;18.77;;;19.60;99.90;;;;;;5115981;28;20078;-49
2022/08/16 04:11:28;;;;;;;19.48;17.45;;;19.70;99.90;;;;;;5116163;27;20062;-46
2022/08/16 04:13:53;;;;;;;20.02;18.27;;;19.50;99.90;;;;;;5116170;28;20524;-48
2022/08/16 04:16:19;;;;;;;21.20;19.20;;;19.50;99.90;;;;;;5114862;28;20039;-46
2022/08/16 04:18:44;;;;;;;20.92;19.13;;;19.50;99.90;;;;;;5115005;28;20396;-47
2022/08/16 04:21:10;;;;;;;22.75;19.70;;;19.50;99.90;;;;;;5115882;28;20620;-47
2022/08/16 04:23:37;;;;;;;20.48;18.48;;;19.40;99.90;;;;;;5115751;28;20459;-46
2022/08/16 04:26:05;;;;;;;21.00;18.80;;;19.40;99.90;;;;;;5115725;28;20401;-46
2022/08/16 04:28:31;;;;;;;20.70;18.80;;;19.40;99.90;;;;;;5115582;28;20473;-47
2022/08/16 04:30:56;;;;;;;20.85;18.67;;;19.40;99.90;;;;;;5115629;28;20076;-45
2022/08/16 04:33:22;;;;;;;20.20;18.20;;;19.40;99.90;;;;;;5115645;28;20047;-46
2022/08/16 04:35:47;;;;;;;23.30;20.95;;;19.40;99.90;;;;;;5114261;28;20054;-46
2022/08/16 04:38:13;;;;;;;23.60;19.67;;;19.40;99.90;;;;;;5115313;28;20082;-46
2022/08/16 04:40:39;;;;;;;20.65;18.60;;;19.40;99.90;;;;;;5115267;27;20059;-46
2022/08/16 04:43:05;;;;;;;21.27;19.17;;;19.40;99.90;;;;;;5115765;28;20451;-46
2022/08/16 04:45:30;;;;;;;21.80;19.45;;;19.40;99.90;;;;;;5115235;28;20405;-48
2022/08/16 04:47:56;;;;;;;21.45;19.40;;;19.40;99.90;;;;;;5115476;28;20042;-45
2022/08/16 04:50:26;;;;;;;20.67;18.52;;;19.40;99.90;;;;;;5115343;28;20051;-46
2022/08/16 04:52:53;;;;;;;19.52;17.52;;;19.40;99.90;;;;;;5115367;28;20036;-46
2022/08/16 04:55:22;;;;;;;20.25;18.05;;;19.40;99.90;;;;;;5115425;28;20514;-46
2022/08/16 04:57:49;;;;;;;20.25;18.48;;;19.40;99.90;;;;;;5115172;28;20039;-47
2022/08/16 05:00:19;;;;;;;19.13;17.15;;;19.40;99.90;;;;;;5115113;28;20073;-46
2022/08/16 05:02:49;;;;;;;20.55;18.45;;;19.50;99.90;;;;;;5115012;28;20031;-46
2022/08/16 05:05:15;;;;;;;19.73;17.90;;;;;;;;;;5115016;28;20416;-47
2022/08/16 05:07:41;;;;;;;19.60;17.80;;;19.60;99.90;;;;;;5114359;28;20058;-50
2022/08/16 05:10:08;;;;;;;20.40;18.40;;;19.60;99.90;;;;;;5114650;28;20035;-46
2022/08/16 05:12:34;;;;;;;21.98;19.33;;;19.70;99.90;;;;;;5114941;27;20047;-45
2022/08/16 05:15:00;;;;;;;19.60;17.70;;;19.70;99.90;;;;;;5115001;28;20093;-46
2022/08/16 05:17:26;;;;;;;19.90;17.73;;;19.90;99.90;;;;;;5114841;28;20410;-47
2022/08/16 05:19:52;;;;;;;20.00;18.10;;;20.00;99.90;;;;;;5113318;28;20050;-46
2022/08/16 05:22:17;;;;;;;18.77;17.08;;;20.10;99.90;;;;;;5114694;28;20102;-45
2022/08/16 05:24:43;;;;;;;18.95;17.20;;;20.10;99.90;;;;;;5114680;28;20039;-49
2022/08/16 05:27:09;;;;;;;19.98;18.02;;;20.20;99.90;;;;;;5114697;28;20046;-45
2022/08/16 05:29:34;;;;;;;19.83;17.70;;;20.30;99.90;;;;;;5114598;28;20040;-46
2022/08/16 05:32:00;;;;;;;20.52;18.42;;;20.40;99.90;;;;;;5114280;28;20032;-46
2022/08/16 05:34:27;;;;;;;19.88;17.92;;;20.50;99.90;;;;;;5113201;28;20094;-46
2022/08/16 05:36:56;;;;;;;19.77;17.80;;;20.50;99.90;;;;;;5114597;28;20044;-46
2022/08/16 05:39:23;;;;;;;21.55;19.30;;;21.10;99.90;;;;;;5114400;28;20043;-46
2022/08/16 05:41:49;;;;;;;20.38;18.40;;;21.80;99.90;;;;;;5113980;28;20493;-49
2022/08/16 05:44:15;;;;;;;21.35;19.20;;;22.70;99.90;;;;;;5114227;28;20049;-46
2022/08/16 05:46:43;;;;;;;20.60;18.60;;;23.70;99.90;;;;;;5114137;28;20036;-47
2022/08/16 05:49:12;;;;;;;18.65;16.75;;;24.30;99.90;;;;;;5114101;28;20511;-46
2022/08/16 05:51:38;;;;;;;19.98;18.10;;;24.90;99.90;;;;;;5114230;28;20416;-47
2022/08/16 05:54:05;;;;;;;19.17;17.27;;;25.50;99.90;;;;;;5113868;28;20542;-47
2022/08/16 05:56:30;;;;;;;17.73;15.82;;;26.20;99.90;;;;;;5114191;28;20122;-46
2022/08/16 05:58:56;;;;;;;18.52;16.75;;;26.70;99.90;;;;;;5113965;28;20086;-47
2022/08/16 06:01:21;;;;;;;17.00;15.30;;;27.10;99.90;;;;;;5113887;28;20067;-49
2022/08/16 06:03:47;;;;;;;17.05;15.32;;;27.80;99.90;;;;;;5113774;28;20051;-46
2022/08/16 06:06:12;;;;;;;18.63;16.58;;;27.80;99.90;;;;;;5113877;28;20036;-47
2022/08/16 06:08:38;;;;;;;16.55;14.95;;;28.40;99.90;;;;;;5113890;28;20031;-48
2022/08/16 06:11:04;;;;;;;16.13;14.60;;;28.70;99.90;;;;;;5113676;28;20036;-47
2022/08/16 06:13:30;;;;;;;16.52;14.75;;;28.40;99.90;;;;;;5113692;28;20040;-47
2022/08/16 06:15:56;;;;;;;16.88;15.18;;;27.60;99.00;;;;;;5113665;28;20048;-46
2022/08/16 06:18:21;;;;;;;15.45;14.02;;;26.90;98.80;;;;;;5113540;28;20127;-50
2022/08/16 06:20:47;;;;;;;16.58;15.10;;;26.30;99.90;;;;;;5113524;28;20077;-49
2022/08/16 06:23:13;;;;;;;16.02;14.48;;;25.70;99.90;;;;;;5113477;28;20118;-47
2022/08/16 06:25:38;;;;;;;15.50;14.02;;;25.30;99.90;;;;;;5113611;28;20081;-48
2022/08/16 06:28:05;;;;;;;16.98;15.25;;;;;;;;;;5113409;28;20043;-46
2022/08/16 06:30:33;;;;;;;16.30;14.90;;;24.50;99.90;;;;;;5113457;28;20036;-46
2022/08/16 06:33:00;;;;;;;17.98;15.98;;;24.30;99.90;;;;;;5113343;28;20084;-45
2022/08/16 06:35:25;;;;;;;17.27;15.60;;;23.90;99.90;;;;;;5113604;28;20051;-46
2022/08/16 06:37:51;;;;;;;16.95;15.45;;;23.90;99.90;;;;;;5113536;28;20043;-48
2022/08/16 06:40:16;;;;;;;18.15;16.40;;;23.90;99.90;;;;;;5113429;28;20430;-46
2022/08/16 06:42:42;;;;;;;17.98;16.23;;;24.80;99.90;;;;;;5113360;28;20124;-49
2022/08/16 06:45:08;;;;;;;17.08;15.48;;;25.10;99.90;;;;;;5113348;28;20032;-47
2022/08/16 06:47:34;;;;;;;16.98;15.45;;;25.40;99.90;;;;;;5113193;28;20031;-46
2022/08/16 06:49:59;;;;;;;18.83;16.65;;;25.50;99.90;;;;;;5113386;28;20051;-46
2022/08/16 06:52:25;;;;;;;17.67;16.08;;;26.40;99.90;;;;;;5113357;28;20093;-46
2022/08/16 06:54:51;;;;;;;16.33;14.73;;;26.90;99.90;;;;;;5113119;28;20039;-46
2022/08/16 06:57:18;;;;;;;17.88;16.27;;;27.40;99.90;;;;;;5113190;28;20044;-46
2022/08/16 06:59:45;;;;;;;18.08;16.40;;;27.30;99.90;;;;;;5113603;28;20048;-46
2022/08/16 07:02:11;;;;;;;18.05;16.15;;;27.10;99.90;;;;;;5113283;28;20043;-48
2022/08/16 07:04:36;;;;;;;17.67;15.90;;;27.50;99.70;;;;;;5113228;28;20501;-47
2022/08/16 07:07:04;;;;;;;17.75;16.13;;;27.50;99.70;;;;;;5113288;28;20519;-48
2022/08/16 07:09:30;;;;;;;17.98;16.27;;;27.20;99.60;;;;;;5112024;28;20074;-46
2022/08/16 07:11:56;;;;;;;16.35;14.80;;;27.10;99.90;;;;;;5113097;28;20509;-46
2022/08/16 07:14:21;;;;;;;17.88;16.27;;;27.60;99.90;;;;;;5113047;28;20047;-46
2022/08/16 07:16:47;;;;;;;17.48;16.08;;;27.80;98.90;;;;;;5112876;28;20408;-47
2022/08/16 07:19:15;;;;;;;17.63;16.10;;;28.30;99.00;;;;;;5113133;28;20050;-46
2022/08/16 07:21:41;;;;;;;17.77;16.15;;;28.70;98.50;;;;;;5113159;28;20054;-50
2022/08/16 07:24:07;;;;;;;18.03;16.33;;;29.00;97.60;;;;;;5112984;28;20047;-48
2022/08/16 07:26:33;;;;;;;20.25;17.45;;;29.00;96.80;;;;;;5112982;28;20512;-47
2022/08/16 07:28:59;;;;;;;19.05;17.38;;;29.20;96.60;;;;;;5112802;28;20048;-48
2022/08/16 07:31:25;;;;;;;19.63;17.55;;;29.00;96.70;;;;;;5112612;28;20044;-46
2022/08/16 07:33:51;;;;;;;17.95;16.15;;;29.10;99.90;;;;;;5117203;28;20473;-46
2022/08/16 07:36:17;;;;;;;17.15;15.75;;;28.50;97.50;;;;;;5116891;28;20069;-47
2022/08/16 07:38:43;;;;;;;18.02;16.42;;;28.20;97.40;;;;;;5116883;28;20039;-46
2022/08/16 07:41:09;;;;;;;17.98;16.35;;;27.80;97.90;;;;;;5116695;28;20393;-47
2022/08/16 07:43:35;;;;;;;18.98;17.10;;;27.70;97.90;;;;;;5116535;28;20071;-46
2022/08/16 07:46:00;;;;;;;17.48;15.88;;;27.50;97.50;;;;;;5115262;28;20058;-47
2022/08/16 07:48:26;;;;;;;19.30;17.25;;;27.40;98.50;;;;;;5116787;28;20040;-46
2022/08/16 07:50:53;;;;;;;18.70;16.73;;;27.30;98.70;;;;;;5116582;28;20043;-48
2022/08/16 07:53:18;;;;;;;17.67;16.02;;;27.40;98.70;;;;;;5116457;28;20039;-46
2022/08/16 07:55:44;;;;;;;17.15;15.55;;;27.30;99.00;;;;;;5116324;28;20046;-46
2022/08/16 07:58:10;;;;;;;18.02;16.42;;;27.40;99.10;;;;;;5116206;28;20040;-46
2022/08/16 08:00:36;;;;;;;17.58;16.00;;;27.50;98.90;;;;;;5116501;28;20082;-48
2022/08/16 08:03:03;;;;;;;18.30;16.55;;;27.50;98.70;;;;;;5116652;28;20051;-46
2022/08/16 08:05:29;;;;;;;18.13;16.42;;;27.40;98.30;;;;;;5116192;28;20051;-46
2022/08/16 08:07:55;;;;;;;17.50;15.82;;;27.40;98.70;;;;;;5116142;28;20039;-48
2022/08/16 08:10:23;;;;;;;17.85;16.02;;;27.40;98.50;;;;;;5115990;28;20078;-47
2022/08/16 08:12:50;;;;;;;17.25;15.70;;;27.40;98.90;;;;;;5115828;28;20123;-46
2022/08/16 08:15:18;;;;;;;18.15;16.45;;;27.50;99.20;;;;;;5116231;28;20044;-46
2022/08/16 08:17:43;;;;;;;16.15;14.63;;;27.40;98.60;;;;;;5116113;28;20036;-46
2022/08/16 08:20:12;;;;;;;16.08;14.45;;;27.50;98.60;;;;;;5115812;28;20055;-47
2022/08/16 08:22:38;;;;;;;14.70;13.18;;;27.40;98.20;;;;;;5116117;28;20059;-47
2022/08/16 08:25:05;;;;;;;15.02;13.63;;;27.50;98.70;;;;;;5116070;28;20375;-46
2022/08/16 08:27:31;;;;;;;14.75;13.45;;;27.60;98.80;;;;;;5115637;28;20043;-47
2022/08/16 08:29:57;;;;;;;16.02;14.45;;;27.60;98.50;;;;;;5115873;28;20512;-46
2022/08/16 08:32:24;;;;;;;14.93;13.57;;;27.60;98.30;;;;;;5115644;28;20055;-47
2022/08/16 08:34:50;;;;;;;14.88;13.48;;;27.80;98.50;;;;;;5115749;28;20058;-46
2022/08/16 08:37:15;;;;;;;15.95;14.35;;;27.90;98.50;;;;;;5115821;28;20066;-47
2022/08/16 08:39:41;;;;;;;16.90;15.13;;;28.00;98.20;;;;;;5116018;28;20509;-49
2022/08/16 08:42:07;;;;;;;15.68;14.18;;;27.80;97.60;;;;;;5115243;28;20466;-47
2022/08/16 08:44:34;;;;;;;;;;;27.90;97.80;;;;;;5115924;28;20039;-46
2022/08/16 08:47:01;;;;;;;15.50;14.10;;;27.90;97.40;;;;;;5115584;28;20455;-46
2022/08/16 08:49:29;;;;;;;15.05;13.55;;;28.00;97.60;;;;;;5115353;28;20040;-48
2022/08/16 08:51:55;;;;;;;15.07;13.25;;;28.20;97.90;;;;;;5115333;28;20040;-49
2022/08/16 08:54:20;;;;;;;14.73;13.32;;;28.20;97.90;;;;;;5115244;28;20156;-46
2022/08/16 08:56:46;;;;;;;13.82;12.45;;;28.40;97.00;;;;;;5115015;28;20477;-46
2022/08/16 08:59:13;;;;;;;12.57;11.23;;;28.30;97.00;;;;;;5115329;28;20046;-46
2022/08/16 09:01:39;;;;;;;11.93;10.77;;;28.30;97.00;;;;;;5115171;28;20493;-50
2022/08/16 09:04:06;;;;;;;12.18;11.07;;;28.50;96.60;;;;;;5115574;28;20055;-47
2022/08/16 09:06:33;;;;;;;11.75;10.60;;;28.60;96.30;;;;;;5114985;28;20092;-46
2022/08/16 09:08:59;;;;;;;13.63;10.63;;;28.50;95.90;;;;;;5114817;27;20156;-46
2022/08/16 09:11:26;;;;;;;12.60;10.30;;;28.60;96.00;;;;;;5115082;28;20051;-48
2022/08/16 09:13:52;;;;;;;8.23;7.53;;;28.70;95.80;;;;;;5115160;28;20044;-46
2022/08/16 09:16:18;;;;;;;9.60;8.05;;;28.70;94.60;;;;;;5114883;28;20431;-46
2022/08/16 09:18:44;;;;;;;8.40;7.60;;;28.80;94.40;;;;;;5114727;28;20085;-47
2022/08/16 09:21:10;;;;;;;10.30;9.20;;;28.80;94.50;;;;;;5114660;28;20074;-48
2022/08/16 09:23:37;;;;;;;9.43;8.52;;;28.60;93.70;;;;;;5113419;28;20126;-47
2022/08/16 09:26:04;;;;;;;7.85;7.15;;;28.70;94.00;;;;;;5114722;28;20077;-46
2022/08/16 09:28:30;;;;;;;9.32;8.35;;;28.80;94.30;;;;;;5114689;28;20073;-47
2022/08/16 09:30:55;;;;;;;10.30;9.35;;;28.80;93.80;;;;;;5114666;28;20072;-46
2022/08/16 09:33:21;;;;;;;9.40;8.10;;;29.00;94.00;;;;;;5114453;28;20048;-46
2022/08/16 09:35:48;;;;;;;10.73;7.85;;;28.90;93.90;;;;;;5114325;28;20048;-46
2022/08/16 09:38:14;;;;;;;14.13;7.95;;;28.90;93.50;;;;;;5114187;28;20075;-48
2022/08/16 09:40:42;;;;;;;10.00;9.00;;;29.10;94.40;;;;;;5114271;28;20071;-49
2022/08/16 09:43:10;;;;;;;9.95;8.95;;;29.10;93.70;;;;;;5114403;28;20046;-47
2022/08/16 09:45:41;;;;;;;9.23;8.18;;;29.00;93.80;;;;;;5113200;28;20490;-47
2022/08/16 09:48:08;;;;;;;8.43;7.47;;;29.20;93.70;;;;;;5095747;28;20459;-47
2022/08/16 09:50:35;;;;;;;8.50;7.63;;;29.40;93.50;;;;;;5114193;28;20040;-45
2022/08/16 09:53:04;;;;;;;7.50;6.80;;;29.40;92.20;;;;;;5113796;28;20039;-46
2022/08/16 09:55:30;;;;;;;9.07;6.95;;;29.50;92.40;;;;;;5113650;28;20040;-46
2022/08/16 09:57:56;;;;;;;8.73;6.40;;;29.50;92.00;;;;;;5114215;28;20067;-48
2022/08/16 10:00:25;;;;;;;7.85;7.05;;;29.50;92.10;;;;;;5113932;28;20054;-46
2022/08/16 10:02:51;;;;;;;8.93;6.70;;;29.60;91.80;;;;;;5113959;27;20047;-46
2022/08/16 10:05:18;;;;;;;8.97;8.00;;;29.60;92.20;;;;;;5113901;28;20535;-46
2022/08/16 10:07:46;;;;;;;7.63;6.93;;;29.60;91.50;;;;;;5114019;28;20317;-50
2022/08/16 10:10:13;;;;;;;6.63;6.13;;;29.70;91.90;;;;;;5113960;28;20485;-48
2022/08/16 10:15:26;;;;;;;8.02;7.03;;;29.90;91.40;;;;;;5113582;28;20051;-49
2022/08/16 10:17:54;;;;;;;5.93;5.43;;;29.80;91.30;;;;;;5113798;28;20050;-48
2022/08/16 10:20:20;;;;;;;6.68;5.75;;;29.90;91.00;;;;;;5113899;28;20054;-47
2022/08/16 10:22:46;;;;;;;8.45;5.95;;;30.00;90.50;;;;;;5113807;28;20045;-47
2022/08/16 10:25:12;;;;;;;7.20;6.15;;;29.90;90.40;;;;;;5113703;28;20040;-48
2022/08/16 10:27:38;;;;;;;6.73;6.03;;;29.90;90.30;;;;;;5112293;28;20088;-47
2022/08/16 10:30:06;;;;;;;7.90;5.45;;;29.90;89.20;;;;;;5113568;28;20397;-46
2022/08/16 10:32:32;;;;;;;6.00;5.20;;;30.00;89.30;;;;;;5113526;28;20051;-47
2022/08/16 10:34:59;;;;;;;6.85;6.18;;;30.10;90.20;;;;;;5113595;28;20050;-46
2022/08/16 10:37:26;;;;;;;6.50;5.45;;;30.10;89.40;;;;;;5113688;28;20047;-47
2022/08/16 10:39:51;;;;;;;8.88;5.50;;;30.10;89.50;;;;;;5113535;28;20047;-47
2022/08/16 10:42:17;;;;;;;6.90;6.15;;;30.10;89.40;;;;;;5111912;28;20410;-47
2022/08/16 10:44:43;;;;;;;6.85;5.55;;;30.10;88.20;;;;;;5113338;28;20044;-47
2022/08/16 10:47:10;;;;;;;6.30;5.70;;;30.00;88.00;;;;;;5113861;28;20040;-46
2022/08/16 10:49:35;;;;;;;7.43;6.15;;;30.20;89.20;;;;;;5095151;28;20044;-48
2022/08/16 10:52:02;;;;;;;7.95;5.10;;;30.00;88.80;;;;;;5113560;28;20080;-46
2022/08/16 10:54:28;;;;;;;4.75;4.30;;;30.10;88.80;;;;;;5113058;28;20552;-47
2022/08/16 10:56:54;;;;;;;4.60;4.18;;;30.30;86.60;;;;;;5113264;28;20123;-47
2022/08/16 10:59:20;;;;;;;6.75;4.20;;;30.30;85.90;;;;;;5113326;28;20047;-47
2022/08/16 11:01:46;;;;;;;6.10;4.80;;;30.30;85.40;;;;;;5113134;28;20502;-46
2022/08/16 11:04:12;;;;;;;7.93;4.70;;;30.40;83.80;;;;;;5113088;28;20284;-48
2022/08/16 11:06:38;;;;;;;5.95;4.28;;;30.50;85.20;;;;;;5114586;28;20413;-46
2022/08/16 11:09:03;;;;;;;7.35;4.03;;;30.50;84.10;;;;;;5117392;28;20093;-47
2022/08/16 11:11:29;;;;;;;6.95;4.47;;;30.60;83.00;;;;;;5117350;28;20392;-46
2022/08/16 11:13:55;;;;;;;4.88;4.25;;;30.70;84.40;;;;;;5117101;28;20092;-46
2022/08/16 11:16:21;;;;;;;4.43;4.03;;;30.80;83.10;;;;;;5117291;28;20044;-46
2022/08/16 11:18:46;;;;;;;3.73;3.43;;;30.80;84.10;;;;;;5117475;28;20400;-46
2022/08/16 11:21:14;;;;;;;4.05;3.20;;;30.80;82.40;;;;;;5117155;28;20051;-47
2022/08/16 11:23:40;;;;;;;4.75;3.05;;;30.70;79.90;;;;;;5117163;28;20035;-46
2022/08/16 11:26:06;;;;;;;3.58;3.20;;;30.70;78.00;;;;;;5115772;28;20511;-47
2022/08/16 11:28:34;;;;;;;3.53;2.80;;;30.80;80.10;;;;;;5116960;28;20488;-47
2022/08/16 11:31:01;;;;;;;3.30;3.00;;;31.00;78.50;;;;;;5116936;28;20066;-47
2022/08/16 11:33:26;;;;;;;3.78;3.10;;;31.00;79.20;;;;;;5116947;28;20127;-47
2022/08/16 11:35:52;;;;;;;3.63;3.22;;;31.20;79.00;;;;;;5116891;28;20587;-46
2022/08/16 11:38:21;;;;;;;5.88;3.15;;;31.20;77.90;;;;;;5116820;28;20044;-48
2022/08/16 11:40:51;;;;;;;5.22;3.20;;;31.30;77.50;;;;;;5116540;28;20063;-49
2022/08/16 11:43:20;;;;;;;3.47;3.17;;;31.20;75.70;;;;;;5116671;28;20047;-48
2022/08/16 11:45:47;;;;;;;3.70;3.00;;;31.20;76.90;;;;;;5116788;28;20039;-49
2022/08/16 11:48:14;;;;;;;3.28;2.95;;;31.40;76.00;;;;;;5116815;28;20071;-47
2022/08/16 11:50:42;;;;;;;3.95;2.90;;;31.30;76.20;;;;;;5116398;28;20047;-51
2022/08/16 11:53:08;;;;;;;4.68;3.13;;;31.40;76.80;;;;;;5116896;28;20460;-49
2022/08/16 11:55:35;;;;;;;3.85;3.15;;;31.50;75.60;;;;;;5115451;28;20058;-48
2022/08/16 11:58:00;;;;;;;4.32;3.05;;;31.50;73.90;;;;;;5115363;28;20054;-46
2022/08/16 12:00:29;;;;;;;6.07;3.08;;;31.50;74.20;;;;;;5116504;28;20043;-47
2022/08/16 12:02:54;;;;;;;3.28;2.50;;;31.10;72.50;;;;;;5116485;28;20092;-46
2022/08/16 12:05:20;;;;;;;3.35;3.00;;;31.40;74.90;;;;;;5116339;28;20036;-46
2022/08/16 12:07:45;;;;;;;4.18;3.22;;;31.40;72.40;;;;;;5116371;28;20048;-47
2022/08/16 12:10:17;;;;;;;2.83;2.60;;;31.40;72.00;;;;;;5116608;28;20074;-50
2022/08/16 12:12:43;;;;;;;3.35;2.92;;;31.40;73.20;;;;;;5116227;28;20442;-46
2022/08/16 12:15:11;;;;;;;2.97;2.70;;;31.50;73.50;;;;;;5116172;28;20074;-47
2022/08/16 12:17:39;;;;;;;3.88;2.75;;;31.50;73.10;;;;;;5115444;28;20048;-46
2022/08/16 12:20:08;;;;;;;4.53;2.80;;;31.50;73.40;;;;;;5114823;28;20051;-47
2022/08/16 12:22:35;;;;;;;5.45;2.83;;;31.70;73.80;;;;;;5115906;27;20064;-47
2022/08/16 12:25:03;;;;;;;3.33;2.70;;;31.70;72.90;;;;;;5115808;28;20031;-47
2022/08/16 12:27:30;;;;;;;4.07;3.22;;;31.60;72.20;;;;;;5115940;28;20063;-48
2022/08/16 12:29:56;;;;;;;4.13;2.45;;;31.50;70.40;;;;;;5115937;28;20055;-46
2022/08/16 12:32:21;;;;;;;2.90;2.60;;;31.60;71.10;;;;;;5115798;28;20040;-46